Manea, United Kingdom
Current Conditions -  °F | °C
As of 8:58 PM on Sunday 21 Dec 2014 (Local Time) from EGUN Reporting Station
Overcast Overcast  
Wind Chill: 52°   Ceiling: 1400
Heat Index: 52°   Visibility: 6mi
Dew Point: 47°   Wind: 20mph
Humidity: 84%   Direction: 240°WSW
Pressure: 30.07"   Gusts: 29mph
Location:  52.48°N, 0.18°E
Report Text: EGUN 212058Z AUTO 24017G25KT 9999 OVC014 11/09 A3007 RMK AO2 PK WND 22034/03 SLP186 T01110085 57014 $
Loading
Personal Weather Stations






























Interactive Weather Map New forecast layout! Learn more

10-Day Weather Forecast

Advertisements
Track Severe Weather on mobile